createdAt,value
2022-12-06T00:06:49.553Z,12.35
2022-12-06T00:21:09.572Z,11.91
2022-12-06T00:27:52.264Z,12.25
2022-12-06T00:34:36.539Z,10.33
2022-12-06T00:41:35.035Z,11.78
2022-12-06T00:48:19.155Z,12.24
2022-12-06T00:55:16.513Z,10.40
2022-12-06T01:02:08.974Z,11.84
2022-12-06T01:08:53.106Z,12.17
2022-12-06T01:15:35.076Z,10.29
2022-12-06T01:22:16.947Z,11.32
2022-12-06T01:29:00.501Z,13.39
2022-12-06T01:35:42.741Z,11.00
2022-12-06T01:42:24.420Z,11.53
2022-12-06T01:49:06.382Z,11.95
2022-12-06T01:55:48.725Z,9.68
2022-12-06T02:02:32.380Z,10.78
2022-12-06T02:09:17.275Z,13.13
2022-12-06T02:15:59.611Z,11.35
2022-12-06T02:22:42.034Z,11.34
2022-12-06T02:29:34.882Z,13.24
2022-12-06T02:49:56.116Z,10.68
2022-12-06T02:56:38.336Z,13.00
2022-12-06T03:03:22.358Z,11.72
2022-12-06T03:10:19.051Z,9.53
2022-12-06T03:17:09.741Z,10.49
2022-12-06T03:23:51.191Z,12.47
2022-12-06T03:30:33.064Z,11.57
2022-12-06T03:37:16.161Z,9.35
2022-12-06T03:43:58.853Z,10.29
2022-12-06T03:50:43.302Z,12.62
2022-12-06T03:57:25.186Z,11.85
2022-12-06T04:04:08.686Z,10.04
2022-12-06T04:10:54.891Z,11.46
2022-12-06T04:17:34.745Z,11.94
2022-12-06T04:24:16.348Z,9.95
2022-12-06T04:30:56.510Z,10.74
2022-12-06T04:37:39.718Z,13.37
2022-12-06T04:44:21.465Z,11.68
2022-12-06T04:51:03.646Z,12.28
2022-12-06T04:57:45.688Z,12.73
2022-12-06T05:04:27.804Z,10.75
2022-12-06T05:11:09.830Z,12.02
2022-12-06T05:17:51.973Z,12.67
2022-12-06T05:24:33.845Z,10.61
2022-12-06T05:31:16.952Z,11.80
2022-12-06T05:38:00.308Z,12.37
2022-12-06T05:44:43.369Z,10.37
2022-12-06T05:51:32.650Z,11.41
2022-12-06T05:58:14.265Z,11.98
2022-12-06T06:05:05.931Z,10.13
2022-12-06T06:11:45.877Z,11.18
2022-12-06T06:33:27.407Z,11.96
2022-12-06T06:40:14.106Z,12.81
2022-12-06T06:46:56.721Z,10.71
2022-12-06T06:53:39.285Z,11.59
2022-12-06T06:59:47.732Z,12.13
2022-12-06T10:48:58.365Z,9.39
2022-12-06T10:55:44.621Z,10.48
2022-12-06T11:01:47.383Z,11.09
2022-12-06T11:19:49.994Z,12.01
2022-12-06T14:39:06.034Z,7.89
2022-12-06T17:59:19.044Z,8.76
2022-12-06T18:11:59.891Z,6.15
2022-12-06T18:18:46.383Z,6.84
2022-12-06T18:25:13.361Z,9.04
2022-12-06T18:31:57.647Z,6.89
2022-12-06T18:37:43.363Z,6.92
2022-12-06T18:43:14.592Z,8.87
2022-12-06T18:48:59.895Z,7.34
2022-12-06T18:54:31.079Z,5.57
2022-12-06T19:00:22.374Z,5.75
2022-12-06T19:06:02.342Z,7.89
2022-12-06T19:11:25.485Z,8.90
2022-12-06T19:16:53.149Z,7.60
2022-12-06T19:22:32.489Z,5.81
2022-12-06T19:28:06.418Z,5.93
2022-12-06T19:39:18.559Z,7.99
2022-12-06T19:44:44.996Z,5.93
2022-12-06T19:50:14.347Z,5.97
2022-12-06T19:55:37.623Z,8.10
2022-12-06T20:01:27.873Z,8.24
2022-12-06T20:07:02.883Z,5.96
2022-12-06T20:12:52.953Z,4.76
2022-12-06T20:18:35.950Z,5.64
2022-12-06T20:24:26.970Z,8.49
2022-12-06T20:30:10.002Z,8.32
2022-12-06T20:35:53.070Z,6.04
2022-12-06T20:41:40.003Z,6.26
2022-12-06T20:47:17.992Z,8.70
2022-12-06T20:54:01.397Z,8.28
2022-12-06T21:00:44.691Z,5.92
2022-12-06T21:07:27.639Z,6.59
2022-12-06T21:14:10.719Z,8.79
2022-12-06T21:20:55.440Z,7.26
2022-12-06T21:27:39.433Z,5.25
2022-12-06T21:34:27.713Z,6.00
2022-12-06T21:41:12.297Z,8.15
2022-12-06T21:47:55.263Z,7.57
2022-12-06T21:54:38.698Z,5.25
2022-12-06T22:00:46.509Z,6.09
2022-12-06T22:06:23.110Z,8.44
2022-12-06T22:12:01.127Z,8.50
2022-12-06T22:17:35.024Z,6.34
2022-12-06T22:23:13.066Z,6.60
2022-12-06T22:29:56.380Z,8.78
2022-12-06T22:36:13.998Z,8.20
2022-12-06T22:42:14.033Z,5.85
2022-12-06T22:48:38.639Z,6.23
2022-12-06T22:55:24.621Z,9.46
2022-12-06T23:01:36.211Z,7.58
2022-12-06T23:07:59.365Z,5.89
2022-12-06T23:15:03.013Z,7.42
2022-12-06T23:21:25.888Z,8.28
2022-12-06T23:28:13.021Z,5.83
2022-12-06T23:34:56.232Z,7.13
2022-12-06T23:41:39.712Z,9.45
2022-12-06T23:48:22.810Z,6.70
2022-12-06T23:55:07.309Z,7.49
